Las Palmas, Spain
Current Conditions -  °F | °C
As of 6:00 PM on Sunday 25 Jan 2015 (Local Time) from GCLP Reporting Station
Broken Clouds Broken Clouds  
Wind Chill: 18°   Ceiling: 4500
Heat Index: 18°   Visibility: 6mi
Dew Point: 11°   Wind: 20mph
Humidity: 64%   Direction: 10°N
Pressure: 30.18"   Gusts: NA
Location:  28.12°N, 15.43°W
Report Text: GCLP 251800Z 01017KT 9999 FEW030 BKN045 18/11 Q1022 NOSIG
Loading
Personal Weather Stations






























Interactive Weather Map New forecast layout! Learn more

10-Day Weather Forecast

Advertisements
Track Severe Weather on mobile